Flight Track Log - Related Links

Times and Time Zones

All times are in EST time to prevent confusion due to time zone crossing. See the NLE103 flight status page for this flight to view local times or setup timezone preferences in your user account.

Time Position Orientation Groundspeed Altitude Reporting Facility
EST Latitude Longitude Course Direction KTS MPH feet Rate Location/Type
Thu 03:26:13 PM 39.4453 -74.6644 232° Southwest 177 204 2,800  Level Washington Center
Thu 03:27:10 PM 39.4103 -74.7214 232° Southwest 194 223 3,900 1,220 Climbing Washington Center
Thu 03:28:11 PM 39.3731 -74.7781 230° Southwest 207 238 5,200 1,131 Climbing Washington Center
Thu 03:29:12 PM 39.3381 -74.8322 230° Southwest 207 238 6,200 958 Climbing Washington Center
Thu 03:30:10 PM 39.3031 -74.8917 233° Southwest 207 238 7,100 807 Climbing Washington Center
Thu 03:31:11 PM 39.2658 -74.9456 228° Southwest 207 238 7,800 744 Climbing Washington Center
Thu 03:32:11 PM 39.2392 -75.0100 242° Southwest 212 244 8,600 744 Climbing Washington Center
Thu 03:33:12 PM 39.2122 -75.0692 240° Southwest 207 238 9,300 650 Climbing Washington Center
Thu 03:34:11 PM 39.1856 -75.1336 242° Southwest 202 232 9,900 403 Climbing Washington Center
Thu 03:35:11 PM 39.1564 -75.1956 239° Southwest 207 238 10,100 99 Climbing Washington Center
Thu 03:36:12 PM 39.1275 -75.2625 241° Southwest 207 238 10,100  Level Washington Center
Thu 03:37:12 PM 39.0964 -75.3269 238° Southwest 207 238 10,100  Level Washington Center
Thu 03:38:13 PM 39.0653 -75.3911 238° Southwest 207 238 10,100  Level Washington Center
Thu 03:39:10 PM 39.0361 -75.4608 242° Southwest 212 244 10,100 -356 Level Washington Center
Thu 03:40:11 PM 39.0028 -75.5275 237° Southwest 212 244 9,400 -639 Descending Washington Center
Thu 03:41:12 PM 38.9717 -75.5969 240° Southwest 219 252 8,800 -655 Descending Washington Center
Thu 03:42:10 PM 38.9342 -75.6664 235° Southwest 234 269 8,100 -353 Descending Washington Center
Thu 03:43:11 PM 38.9050 -75.7383 243° Southwest 234 269 8,100  Level Washington Center
Thu 03:44:11 PM 38.8756 -75.8075 241° Southwest 229 264 8,100  Level Washington Center
Thu 03:45:12 PM 38.8422 -75.8742 237° Southwest 229 264 8,100  Level Washington Center
Thu 03:46:10 PM 38.8147 -75.9433 243° Southwest 229 264 8,100  Level Washington Center
Thu 03:47:10 PM 38.7814 -76.0097 237° Southwest 229 264 8,100 -805 Level Washington Center
Thu 03:48:54 PM 38.7500 -76.1500 254° West 242 278 5,900 -1,317 Descending Potomac TRACON
Thu 03:49:54 PM 38.7333 -76.2333 256° West 235 270 4,500 -950 Descending Potomac TRACON
Thu 03:50:54 PM 38.7333 -76.3167 270° West 241 277 4,000 -261 Descending Potomac TRACON
Thu 03:51:49 PM 38.7333 -76.4000 270° West 236 272 4,000 52 Level Potomac TRACON
Thu 03:52:49 PM 38.7167 -76.4833 256° West 237 273 4,100  Climbing Potomac TRACON
Thu 03:53:49 PM 38.7167 -76.5667 270° West 241 277 4,000 -50 Descending Potomac TRACON
Thu 03:54:49 PM 38.7167 -76.6500 270° West 239 275 4,000  Level Potomac TRACON
Thu 03:55:49 PM 38.7000 -76.7333 256° West 238 274 4,000 -350 Level Potomac TRACON
Thu 03:56:49 PM 38.7000 -76.8167 270° West 236 272 3,300 -496 Descending Potomac TRACON
Thu 03:57:50 PM 38.7333 -76.8833 303° West 212 244 3,000 -545 Descending Potomac TRACON
Thu 03:58:50 PM 38.7500 -76.9333 293° West 165 190 2,200 -446 Descending Potomac TRACON
Thu 03:59:51 PM 38.7833 -76.9667 322° Northwest 143 165 2,100 -496 Descending Potomac TRACON
Thu 04:00:51 PM 38.8167 -77.0000 322° Northwest 139 160 1,200 -887 Descending Potomac TRACON
Thu 04:01:46 PM 38.8333 -77.0167 322° Northwest 134 154 400 -873 Descending Potomac TRACON
Thu 04:03:00 PM 38.8500 -77.0333 303° West  Level FlightAware Approximate
Thu 04:10:00 PM 38.8519 -77.0377 303° West  Level Estimated
Thu 04:11:00 PM 38.8500 -77.0333 303° West  Level FlightAware Approximate

Login

Don't have an account? Register now (free) for customized features, flight alerts, and more!